Etusivu
METAR-TAF:

METAR-TAF

Lentoasemat :

Georgetown, Ascension

Leveyspiiri: 07-58S, Pituuspiiri: 014-24W, korkeus merenpinnasta: 86 m

Tämänhetkinen sää

Tämä raportti tehtiin 55 minuuttia sitten, kello 23.50 UTC
Tuuli 9 kn kaakosta
Lämpötila 27°C
Kosteus 74%
Ilmanpaine 1013 hPa
Näkyvyys 10 km tai enemmän
Muutamia pilviä 2000 ft:n korkeudessa
Hajonneita pilviä 35000 ft:n korkeudessa

METAR: FHAW 292350Z 14009KT 9999 FEW020 BKN350 27/22 Q1013 BLU

Aika: 00:45 (00:45 UTC)

Sääennuste

Tämä raportti tehtiin 2 tuntia ja 15 minuuttia sitten, kello 22.30 UTC
Ennuste voimassa 30. päivästä klo 00 UTC - 30. päivään klo 18 UTC
Tuuli 12 kn etelästä/kaakosta
Näkyvyys 10 km tai enemmän
Muutamia pilviä 1700 ft:n korkeudessa
Todennäköisyys 40% :
Ajoittain
30. päivästä klo 00 UTC - 30. päivään klo 18 UTC
Hajanaisia pilviä 1700 ft:n korkeudessa

TAF: FHAW 292230Z 3000/3018 16012KT 9999 FEW017 PROB40 TEMPO 3000/3018 SCT017

Säähavainnot ja -ennusteet yli 4000 lentoasemalta (METAR- ja TAF-raportit).

Käytössä olevat sääasemat on merkitty karttaan keltaisilla ja punaisilla pisteillä.

Aseta hiiri pisteen päälle nähdäksesi sääaseman nimen.

Klikkaa sitten nähdäksesi säähavainnot ja -ennusteet.

Kartan vaihtaminen: klikkaa mustalla rastilla varustettuja vihreitä pisteitä, niin voit zoomata sisään; viivalla varustettua vihreää pistettä, niin voit zoomata ulos tai vihreitä nuolia, niin pääset viereisille kartoille.


METAR-TAF: